Time;durP1;ratioP1;P1;durP2;ratioP2;P2;SDS_P1;SDS_P2;PMS_P1;PMS_P2;Temp;Humidity;BMP_temperature;BMP_pressure;BME280_temperature;BME280_humidity;BME280_pressure;Samples;Min_cycle;Max_cycle;Signal;HPM_P1;HPM_P2
2022/09/21 00:01:18;;;;;;;5.25;2.83;;;11.40;99.90;;;;;;4946672;28;20031;-77
2022/09/21 00:03:44;;;;;;;6.90;3.05;;;11.40;99.90;;;;;;4951076;29;20034;-76
2022/09/21 00:06:19;;;;;;;4.50;2.78;;;11.40;99.90;;;;;;4944997;28;20027;-75
2022/09/21 00:08:45;;;;;;;6.22;2.80;;;11.40;99.90;;;;;;4947440;29;20059;-73
2022/09/21 00:11:16;;;;;;;8.93;3.20;;;11.40;99.90;;;;;;4945091;29;20024;-75
2022/09/21 00:13:42;;;;;;;4.38;3.10;;;11.40;99.90;;;;;;4941616;29;20055;-72
2022/09/21 00:16:08;;;;;;;8.57;3.25;;;11.40;99.90;;;;;;4943275;28;20031;-74
2022/09/21 00:18:37;;;;;;;3.17;2.88;;;11.30;99.90;;;;;;4949015;29;20044;-77
2022/09/21 00:21:13;;;;;;;6.43;3.20;;;11.40;99.90;;;;;;4944325;29;20643;-75
2022/09/21 00:23:40;;;;;;;5.93;3.05;;;11.50;99.90;;;;;;4947901;29;20135;-77
2022/09/21 00:26:09;;;;;;;4.85;3.00;;;11.50;99.90;;;;;;4962087;28;20036;-74
2022/09/21 00:28:35;;;;;;;4.32;2.85;;;11.40;99.90;;;;;;4948867;29;20166;-75
2022/09/21 00:31:04;;;;;;;5.28;3.10;;;11.40;99.90;;;;;;4951109;29;20115;-76
2022/09/21 00:33:34;;;;;;;4.68;2.80;;;11.40;99.90;;;;;;4951657;29;20178;-75
2022/09/21 00:36:11;;;;;;;7.00;3.33;;;11.40;99.90;;;;;;4964306;28;20528;-76
2022/09/21 00:38:37;;;;;;;4.28;3.03;;;11.40;99.90;;;;;;4947220;28;20036;-77
2022/09/21 00:41:05;;;;;;;7.88;3.13;;;11.40;99.90;;;;;;4946493;29;20038;-77
2022/09/21 00:43:35;;;;;;;5.57;3.15;;;11.50;99.90;;;;;;4949603;29;20170;-76
2022/09/21 00:46:12;;;;;;;9.02;3.03;;;11.50;99.90;;;;;;4953502;29;20126;-75
2022/09/21 00:48:37;;;;;;;5.85;3.00;;;11.50;99.90;;;;;;4962556;28;20110;-76
2022/09/21 00:51:06;;;;;;;4.20;3.05;;;11.60;99.90;;;;;;4948774;28;20114;-77
2022/09/21 00:53:33;;;;;;;6.85;3.15;;;11.60;99.90;;;;;;4951819;29;20047;-78
2022/09/21 00:56:01;;;;;;;7.43;3.50;;;11.60;99.90;;;;;;4949462;28;20026;-77
2022/09/21 00:58:33;;;;;;;14.35;3.83;;;11.70;99.90;;;;;;4950530;29;20035;-75
2022/09/21 01:01:02;;;;;;;3.20;2.90;;;11.70;99.90;;;;;;4947455;29;20066;-75
2022/09/21 01:03:32;;;;;;;4.70;3.50;;;11.70;99.90;;;;;;4950239;28;20054;-73
2022/09/21 01:05:57;;;;;;;8.30;3.17;;;11.60;99.90;;;;;;4961264;28;20497;-76
2022/09/21 01:08:26;;;;;;;5.40;3.10;;;11.60;99.90;;;;;;4953540;29;20127;-77
2022/09/21 01:11:26;;;;;;;6.50;3.60;;;11.60;99.90;;;;;;4947234;29;20023;-74
2022/09/21 01:14:11;;;;;;;6.57;3.38;;;11.60;99.90;;;;;;4949307;29;20022;-75
2022/09/21 01:17:01;;;;;;;5.95;3.30;;;11.60;99.90;;;;;;4949618;29;20041;-75
2022/09/21 01:19:56;;;;;;;8.52;3.03;;;11.60;99.90;;;;;;4944841;29;20032;-77
2022/09/21 01:22:31;;;;;;;6.07;3.67;;;11.70;99.90;;;;;;4941296;29;20119;-77
2022/09/21 01:25:02;;;;;;;8.07;2.70;;;11.70;99.90;;;;;;4961838;28;20031;-77
2022/09/21 01:28:36;;;;;;;4.53;3.17;;;11.70;99.90;;;;;;4947882;28;20509;-72
2022/09/21 01:31:09;;;;;;;8.95;3.72;;;11.70;99.90;;;;;;4933318;29;20445;-75
2022/09/21 01:33:42;;;;;;;4.97;3.53;;;11.80;99.90;;;;;;4933003;29;20132;-74
2022/09/21 01:36:13;;;;;;;5.97;3.08;;;11.70;99.90;;;;;;4946110;28;20043;-76
2022/09/21 01:38:50;;;;;;;6.60;3.70;;;11.80;99.90;;;;;;4948703;29;20070;-77
2022/09/21 01:41:20;;;;;;;5.60;3.75;;;11.80;99.90;;;;;;4945409;28;20344;-77
2022/09/21 01:43:51;;;;;;;8.25;3.20;;;11.80;99.90;;;;;;4946845;28;20039;-77
2022/09/21 01:46:20;;;;;;;6.57;3.92;;;11.70;99.90;;;;;;4952525;29;20446;-76
2022/09/21 01:48:51;;;;;;;7.93;3.78;;;11.70;99.90;;;;;;4962139;28;20028;-76
2022/09/21 01:51:20;;;;;;;4.47;3.92;;;11.70;99.90;;;;;;4946956;29;20023;-76
2022/09/21 01:53:57;;;;;;;9.82;3.63;;;11.70;99.90;;;;;;4948302;28;20049;-77
2022/09/21 01:56:34;;;;;;;8.70;3.63;;;11.70;99.90;;;;;;4947859;29;20103;-76
2022/09/21 01:59:10;;;;;;;10.30;4.03;;;11.70;99.90;;;;;;4944973;29;20035;-74
2022/09/21 02:01:46;;;;;;;6.95;3.55;;;11.70;99.90;;;;;;4950324;29;20491;-75
2022/09/21 02:04:13;;;;;;;4.75;3.67;;;11.70;99.90;;;;;;4964223;28;20043;-78
2022/09/21 02:06:42;;;;;;;9.02;3.40;;;11.70;99.90;;;;;;4948286;28;20027;-76
2022/09/21 02:09:09;;;;;;;6.22;3.72;;;11.60;99.90;;;;;;4946640;28;20023;-77
2022/09/21 02:11:41;;;;;;;7.70;4.10;;;11.60;99.90;;;;;;4945317;28;20476;-77
2022/09/21 02:14:10;;;;;;;9.27;3.70;;;11.60;99.90;;;;;;4952088;29;20031;-77
2022/09/21 02:16:43;;;;;;;8.60;3.92;;;11.60;99.90;;;;;;4949583;28;20042;-77
2022/09/21 02:19:28;;;;;;;4.50;3.75;;;11.60;99.90;;;;;;4953867;28;20042;-75
2022/09/21 02:22:12;;;;;;;6.57;3.67;;;11.60;99.90;;;;;;4945899;28;20035;-77
2022/09/21 02:24:43;;;;;;;8.80;4.80;;;11.60;99.90;;;;;;4951863;29;20035;-77
2022/09/21 02:27:27;;;;;;;7.22;3.78;;;11.60;99.90;;;;;;4950367;29;20031;-76
2022/09/21 02:30:02;;;;;;;9.57;4.32;;;11.50;99.90;;;;;;4945780;29;20054;-76
2022/09/21 02:32:37;;;;;;;6.32;3.85;;;11.50;99.90;;;;;;4946324;29;20030;-78
2022/09/21 02:35:03;;;;;;;11.05;5.35;;;11.50;99.90;;;;;;4946715;28;20019;-75
2022/09/21 02:37:47;;;;;;;4.97;3.85;;;11.50;99.90;;;;;;4945906;28;20027;-77
2022/09/21 02:40:33;;;;;;;8.50;3.70;;;11.50;99.90;;;;;;4947719;29;20027;-74
2022/09/21 02:43:11;;;;;;;5.65;3.38;;;11.40;99.90;;;;;;4944637;29;20061;-76
2022/09/21 02:46:09;;;;;;;11.88;3.63;;;11.30;99.90;;;;;;4947659;28;20065;-78
2022/09/21 02:48:40;;;;;;;5.57;3.42;;;11.20;99.90;;;;;;4947515;29;20047;-75
2022/09/21 02:51:13;;;;;;;6.40;4.13;;;11.20;99.90;;;;;;4961269;28;20059;-77
2022/09/21 02:53:40;;;;;;;6.20;3.33;;;11.20;99.90;;;;;;4945558;29;20032;-78
2022/09/21 02:56:10;;;;;;;8.15;3.45;;;11.10;99.90;;;;;;4946990;29;20099;-76
2022/09/21 02:58:45;;;;;;;6.15;3.55;;;11.10;99.90;;;;;;4954580;29;20086;-77
2022/09/21 03:01:14;;;;;;;11.82;5.32;;;11.00;99.90;;;;;;4946186;29;20467;-76
2022/09/21 03:03:40;;;;;;;8.02;4.32;;;11.00;99.90;;;;;;4946349;29;20031;-77
2022/09/21 03:06:06;;;;;;;4.95;4.47;;;11.00;99.90;;;;;;4956114;29;20030;-75
2022/09/21 03:08:34;;;;;;;9.85;4.03;;;11.00;99.90;;;;;;4946588;29;20027;-77
2022/09/21 03:11:01;;;;;;;7.15;4.28;;;10.90;99.90;;;;;;4945022;28;20031;-73
2022/09/21 03:13:27;;;;;;;7.43;4.55;;;10.80;99.90;;;;;;4945857;29;20012;-77
2022/09/21 03:16:06;;;;;;;8.40;3.90;;;10.80;99.90;;;;;;4946288;28;20449;-77
2022/09/21 03:18:32;;;;;;;6.32;3.85;;;10.80;99.90;;;;;;4947972;29;20544;-77
2022/09/21 03:20:59;;;;;;;6.93;3.92;;;10.80;99.90;;;;;;4946581;28;20031;-76
2022/09/21 03:23:25;;;;;;;7.07;4.30;;;10.70;99.90;;;;;;4946483;28;20031;-76
2022/09/21 03:25:51;;;;;;;9.48;4.32;;;10.80;99.90;;;;;;4946670;28;20094;-76
2022/09/21 03:28:18;;;;;;;10.15;4.55;;;10.70;99.90;;;;;;4944372;29;20083;-77
2022/09/21 03:30:44;;;;;;;10.63;4.28;;;10.70;99.90;;;;;;4945394;28;20065;-77
2022/09/21 03:33:11;;;;;;;6.55;4.65;;;10.60;99.90;;;;;;4945131;29;20074;-76
2022/09/21 03:35:37;;;;;;;9.68;4.93;;;10.50;99.90;;;;;;4945134;29;20517;-75
2022/09/21 03:38:04;;;;;;;8.57;4.53;;;10.50;99.90;;;;;;4946093;28;20034;-77
2022/09/21 03:40:31;;;;;;;11.25;4.88;;;10.50;99.90;;;;;;4953041;28;20020;-77
2022/09/21 03:42:59;;;;;;;10.68;5.50;;;10.50;99.90;;;;;;4943284;28;20113;-77
2022/09/21 03:45:26;;;;;;;7.63;4.07;;;10.40;99.90;;;;;;4945899;29;20445;-74
2022/09/21 03:47:56;;;;;;;9.80;3.90;;;10.30;99.90;;;;;;4945609;28;20034;-77
2022/09/21 03:50:24;;;;;;;10.52;4.90;;;10.20;99.90;;;;;;4946075;29;20023;-77
2022/09/21 03:52:50;;;;;;;8.52;4.72;;;10.10;99.90;;;;;;4946008;29;20122;-76
2022/09/21 03:55:16;;;;;;;6.00;4.30;;;10.10;99.90;;;;;;4948702;29;20193;-74
2022/09/21 03:57:41;;;;;;;8.13;3.58;;;10.00;99.90;;;;;;4950923;28;20038;-76
2022/09/21 04:00:09;;;;;;;6.45;3.70;;;10.00;99.90;;;;;;4949543;28;20019;-76
2022/09/21 04:02:39;;;;;;;8.88;3.47;;;10.00;99.90;;;;;;4964246;28;20034;-76
2022/09/21 04:05:06;;;;;;;8.13;4.07;;;9.90;99.90;;;;;;4950189;29;20488;-77
2022/09/21 04:07:35;;;;;;;6.72;3.72;;;9.90;99.90;;;;;;4955942;28;20121;-77
2022/09/21 04:10:04;;;;;;;6.00;4.05;;;9.90;99.90;;;;;;4946899;29;20039;-74
2022/09/21 04:12:31;;;;;;;8.07;4.70;;;9.80;99.90;;;;;;4965247;28;20058;-75
2022/09/21 04:14:56;;;;;;;7.30;4.22;;;9.80;99.90;;;;;;4947220;28;20183;-77
2022/09/21 04:17:22;;;;;;;6.80;4.00;;;9.90;99.90;;;;;;4951094;29;20114;-76
2022/09/21 04:19:48;;;;;;;9.27;4.57;;;9.90;99.90;;;;;;4947362;28;20043;-76
2022/09/21 04:22:13;;;;;;;9.40;5.88;;;9.80;99.90;;;;;;4950487;29;20460;-76
2022/09/21 04:24:39;;;;;;;6.75;5.85;;;9.80;99.90;;;;;;4945803;28;20027;-77
2022/09/21 04:27:08;;;;;;;11.73;5.57;;;9.90;99.90;;;;;;4954946;28;20606;-74
2022/09/21 04:29:33;;;;;;;7.45;4.75;;;9.80;99.90;;;;;;4951155;29;20931;-77
2022/09/21 04:32:01;;;;;;;12.10;5.13;;;9.80;99.90;;;;;;4954515;29;20174;-74
2022/09/21 04:34:27;;;;;;;7.65;4.50;;;9.80;99.90;;;;;;4953600;29;20468;-77
2022/09/21 04:36:53;;;;;;;7.00;4.13;;;9.70;99.90;;;;;;4949572;28;20504;-77
2022/09/21 04:39:19;;;;;;;7.05;4.50;;;9.70;99.90;;;;;;4951635;28;20063;-77
2022/09/21 04:41:45;;;;;;;7.68;4.18;;;9.70;99.90;;;;;;4953108;29;20027;-78
2022/09/21 04:44:10;;;;;;;6.85;3.97;;;9.60;99.90;;;;;;4937301;29;20031;-76
2022/09/21 04:46:37;;;;;;;7.80;3.75;;;9.60;99.90;;;;;;4994985;23;20461;-75
2022/09/21 04:49:02;;;;;;;9.38;4.10;;;9.60;99.90;;;;;;4968869;28;20046;-77
2022/09/21 04:51:28;;;;;;;5.65;4.03;;;9.50;99.90;;;;;;4965726;28;20114;-75
2022/09/21 04:53:56;;;;;;;8.85;4.05;;;9.50;99.90;;;;;;4965826;28;20026;-70
2022/09/21 04:56:22;;;;;;;7.35;4.30;;;9.50;99.90;;;;;;4968193;28;20078;-75
2022/09/21 04:58:48;;;;;;;7.97;4.18;;;9.50;99.90;;;;;;4963333;28;20074;-71
2022/09/21 05:01:13;;;;;;;9.45;4.35;;;9.40;99.90;;;;;;4965593;28;20039;-76
2022/09/21 05:03:39;;;;;;;6.90;4.47;;;9.40;99.90;;;;;;4968876;28;20019;-77
2022/09/21 05:06:05;;;;;;;9.35;4.13;;;9.40;99.90;;;;;;4968685;28;20022;-75
2022/09/21 05:11:18;;;;;;;7.43;4.00;;;9.30;99.90;;;;;;4967174;28;20556;-74
2022/09/21 05:13:44;;;;;;;6.13;4.30;;;9.30;99.90;;;;;;4970635;28;20059;-75
2022/09/21 05:16:13;;;;;;;10.13;4.55;;;9.30;99.90;;;;;;4963061;28;20022;-77
2022/09/21 05:18:40;;;;;;;8.98;4.10;;;9.30;99.90;;;;;;4966860;28;20071;-75
2022/09/21 05:21:06;;;;;;;7.78;3.90;;;9.30;99.90;;;;;;4965354;28;20054;-75
2022/09/21 05:23:33;;;;;;;6.45;4.18;;;9.40;99.90;;;;;;4965609;28;20026;-75
2022/09/21 05:26:01;;;;;;;6.03;3.45;;;9.40;99.90;;;;;;4964637;28;20034;-78
2022/09/21 05:28:27;;;;;;;8.40;4.50;;;9.40;99.90;;;;;;4962878;28;20037;-77
2022/09/21 05:31:14;;;;;;;8.20;3.97;;;9.40;99.90;;;;;;4965660;28;20026;-77
2022/09/21 05:33:47;;;;;;;8.55;4.30;;;9.50;99.90;;;;;;4963833;28;20019;-76
2022/09/21 05:36:40;;;;;;;8.80;4.38;;;9.50;99.90;;;;;;4982932;28;20030;-75
2022/09/21 05:39:06;;;;;;;9.80;5.68;;;9.40;99.90;;;;;;4962410;28;20520;-75
2022/09/21 05:41:33;;;;;;;13.15;6.82;;;9.50;99.90;;;;;;4961056;28;20039;-76
2022/09/21 05:43:59;;;;;;;9.43;5.30;;;9.50;99.90;;;;;;4963499;28;20035;-75
2022/09/21 05:46:36;;;;;;;17.88;5.78;;;9.50;99.90;;;;;;4960701;28;20093;-77
2022/09/21 05:49:11;;;;;;;8.75;5.85;;;9.50;99.90;;;;;;4966379;28;20043;-75
2022/09/21 05:51:58;;;;;;;9.00;5.32;;;9.50;99.90;;;;;;4964892;28;20102;-76
2022/09/21 05:54:48;;;;;;;12.30;6.00;;;9.50;99.90;;;;;;4964426;28;20019;-76
2022/09/21 05:57:38;;;;;;;14.68;5.95;;;9.50;99.90;;;;;;4977877;28;20047;-77
2022/09/21 06:00:17;;;;;;;11.77;5.47;;;9.60;99.90;;;;;;4965504;28;20023;-76
2022/09/21 06:03:10;;;;;;;8.65;5.57;;;9.70;99.90;;;;;;4963936;28;20098;-76
2022/09/21 06:05:36;;;;;;;6.75;5.00;;;9.70;99.90;;;;;;4978993;28;20083;-76
2022/09/21 06:08:02;;;;;;;10.85;5.30;;;9.80;99.90;;;;;;4969728;28;20521;-75
2022/09/21 06:10:33;;;;;;;11.63;5.68;;;9.80;99.90;;;;;;4965844;28;20077;-75
2022/09/21 06:12:59;;;;;;;13.30;6.18;;;9.90;99.90;;;;;;4962413;28;20139;-76
2022/09/21 06:15:24;;;;;;;13.02;6.22;;;9.90;99.90;;;;;;4963647;28;20098;-76
2022/09/21 06:17:50;;;;;;;14.07;5.95;;;10.10;99.90;;;;;;4962581;28;20026;-76
2022/09/21 06:20:16;;;;;;;6.35;5.35;;;10.20;99.90;;;;;;4961634;28;20428;-75
2022/09/21 06:22:44;;;;;;;7.50;5.18;;;10.30;99.90;;;;;;4962868;28;20043;-78
2022/09/21 06:25:10;;;;;;;8.95;5.40;;;10.30;99.90;;;;;;4963715;28;20046;-76
2022/09/21 06:27:35;;;;;;;6.88;4.55;;;10.30;99.90;;;;;;4962188;28;20027;-75
2022/09/21 06:30:01;;;;;;;9.45;5.43;;;10.40;99.90;;;;;;4963172;28;20118;-75
2022/09/21 06:32:27;;;;;;;7.65;5.22;;;10.40;99.90;;;;;;4962458;28;20397;-76
2022/09/21 06:34:52;;;;;;;17.50;5.65;;;10.50;99.90;;;;;;4965365;28;20022;-76
2022/09/21 06:37:20;;;;;;;8.32;5.55;;;10.60;99.90;;;;;;4968977;28;20146;-76
2022/09/21 06:39:46;;;;;;;11.00;5.82;;;10.70;99.90;;;;;;4963249;28;20030;-75
2022/09/21 06:42:12;;;;;;;17.45;5.70;;;10.80;99.90;;;;;;4964746;28;20035;-77
2022/09/21 06:44:40;;;;;;;14.77;5.35;;;10.90;99.90;;;;;;4964304;28;20050;-77
2022/09/21 06:47:05;;;;;;;10.82;5.78;;;11.00;99.90;;;;;;4960555;28;20031;-74
2022/09/21 06:49:33;;;;;;;10.85;5.95;;;11.10;99.90;;;;;;4968450;28;20049;-75
2022/09/21 06:51:59;;;;;;;10.45;5.65;;;11.20;99.90;;;;;;4962377;28;20099;-75
2022/09/21 06:54:25;;;;;;;10.52;6.20;;;11.30;99.90;;;;;;4963624;28;20098;-75
2022/09/21 06:56:50;;;;;;;13.68;6.25;;;11.40;99.90;;;;;;4963899;28;20058;-78
2022/09/21 06:59:16;;;;;;;14.73;6.28;;;11.50;99.90;;;;;;4957122;28;20066;-74
2022/09/21 07:01:43;;;;;;;8.50;6.53;;;11.60;99.90;;;;;;4962322;28;20042;-75
2022/09/21 07:04:11;;;;;;;16.10;6.78;;;11.60;99.90;;;;;;4962436;28;20038;-74
2022/09/21 07:06:36;;;;;;;11.15;6.32;;;11.80;99.90;;;;;;4962810;28;20027;-74
2022/09/21 07:09:02;;;;;;;11.05;7.53;;;11.90;99.90;;;;;;4963639;28;20341;-75
2022/09/21 07:11:28;;;;;;;13.02;6.72;;;12.00;99.90;;;;;;4967132;28;20428;-75
2022/09/21 07:13:55;;;;;;;16.15;8.20;;;12.10;99.90;;;;;;4964937;28;20042;-77
2022/09/21 07:16:20;;;;;;;14.10;8.00;;;12.20;99.90;;;;;;4963472;28;20027;-76
2022/09/21 07:18:47;;;;;;;10.10;6.95;;;12.40;99.90;;;;;;4963676;28;20027;-75
2022/09/21 07:21:18;;;;;;;13.88;7.00;;;12.40;99.90;;;;;;4970628;28;20027;-74
2022/09/21 07:23:45;;;;;;;13.75;7.13;;;12.50;99.90;;;;;;4969475;28;20030;-75
2022/09/21 07:26:14;;;;;;;15.18;7.25;;;12.70;99.90;;;;;;4963876;28;20027;-75
2022/09/21 07:28:39;;;;;;;14.45;7.43;;;12.80;99.90;;;;;;4963134;28;20027;-75
2022/09/21 07:31:13;;;;;;;15.73;7.57;;;12.80;99.90;;;;;;4962584;28;20421;-76
2022/09/21 07:33:39;;;;;;;10.50;6.88;;;12.90;99.90;;;;;;4963780;28;20023;-75
2022/09/21 07:36:09;;;;;;;11.52;6.95;;;13.00;99.90;;;;;;4963163;28;20082;-75
2022/09/21 07:38:42;;;;;;;10.15;7.22;;;13.10;99.90;;;;;;4960660;28;20531;-76
2022/09/21 07:41:10;;;;;;;14.07;7.80;;;13.20;99.90;;;;;;4978955;28;20027;-77
2022/09/21 07:43:39;;;;;;;16.60;7.60;;;13.40;99.90;;;;;;4966509;28;20046;-75
2022/09/21 07:46:05;;;;;;;16.48;7.40;;;13.40;99.90;;;;;;4963334;28;20035;-75
2022/09/21 07:48:31;;;;;;;16.88;7.63;;;13.50;99.90;;;;;;4962365;28;20027;-76
2022/09/21 07:51:04;;;;;;;11.45;7.63;;;13.70;99.90;;;;;;4969784;28;20019;-75
2022/09/21 07:53:34;;;;;;;15.90;7.45;;;13.80;99.90;;;;;;4964920;28;20031;-75
2022/09/21 07:56:02;;;;;;;13.82;7.28;;;13.90;99.90;;;;;;4962774;28;20031;-74
2022/09/21 08:01:14;;;;;;;12.07;7.22;;;14.10;99.90;;;;;;4965903;28;20037;-75
2022/09/21 08:03:40;;;;;;;17.35;8.60;;;14.20;99.90;;;;;;4960874;28;20031;-75
2022/09/21 08:06:08;;;;;;;21.48;7.55;;;14.40;99.90;;;;;;4965587;28;20062;-74
2022/09/21 08:08:34;;;;;;;11.45;6.47;;;14.50;99.90;;;;;;4961724;28;20057;-74
2022/09/21 08:11:10;;;;;;;10.93;7.47;;;14.60;99.90;;;;;;4959985;28;20027;-75
2022/09/21 08:13:38;;;;;;;10.40;6.63;;;14.80;99.90;;;;;;4962547;28;20585;-75
2022/09/21 08:16:07;;;;;;;15.57;6.15;;;15.00;99.90;;;;;;4963883;28;20063;-77
2022/09/21 08:18:36;;;;;;;14.43;6.50;;;15.20;99.90;;;;;;4963212;28;20070;-72
2022/09/21 08:21:02;;;;;;;13.55;5.78;;;15.50;99.90;;;;;;4966973;28;20062;-77
2022/09/21 08:23:31;;;;;;;10.10;5.68;;;15.70;99.90;;;;;;4964580;28;20054;-76
2022/09/21 08:26:02;;;;;;;10.90;5.68;;;16.00;99.90;;;;;;4963111;28;20057;-76
2022/09/21 08:28:32;;;;;;;378.90;195.68;;;16.30;99.90;;;;;;4960114;28;20064;-75
2022/09/21 08:31:02;;;;;;;54.25;27.40;;;16.60;99.90;;;;;;4965600;28;20014;-74
2022/09/21 08:33:28;;;;;;;25.60;10.70;;;16.90;99.90;;;;;;4960949;28;21284;-76
2022/09/21 08:35:55;;;;;;;5.47;4.35;;;17.30;99.90;;;;;;4962955;28;20027;-74
2022/09/21 08:38:24;;;;;;;7.43;3.20;;;17.60;99.90;;;;;;4963199;28;20019;-75
2022/09/21 08:40:51;;;;;;;7.80;3.33;;;17.90;99.90;;;;;;4963967;28;20016;-75
2022/09/21 08:43:32;;;;;;;7.70;2.40;;;18.20;99.90;;;;;;4964865;28;20067;-74
2022/09/21 08:46:00;;;;;;;9.85;2.97;;;18.30;99.30;;;;;;4968294;28;20126;-75
2022/09/21 08:48:31;;;;;;;9.27;3.95;;;18.50;99.30;;;;;;4965592;28;20016;-74
2022/09/21 08:51:00;;;;;;;19.55;5.65;;;18.40;99.90;;;;;;4966758;28;20019;-75
2022/09/21 08:53:29;;;;;;;7.82;3.22;;;18.70;98.50;;;;;;4964744;28;20328;-75
2022/09/21 08:55:56;;;;;;;10.82;3.22;;;19.00;99.10;;;;;;4981804;28;20037;-75
2022/09/21 08:58:27;;;;;;;10.30;4.03;;;19.50;97.60;;;;;;4965604;28;20039;-74
2022/09/21 09:01:14;;;;;;;6.07;3.92;;;19.80;97.50;;;;;;4968658;28;20081;-74
2022/09/21 09:03:57;;;;;;;7.30;3.85;;;19.90;95.90;;;;;;4980192;28;20037;-74
2022/09/21 09:06:23;;;;;;;;;;;20.20;96.10;;;;;;4954396;28;20030;-74
2022/09/21 09:09:01;;;;;;;10.35;3.60;;;20.90;95.00;;;;;;4964742;28;20232;-73
2022/09/21 09:12:04;;;;;;;8.13;4.25;;;21.60;92.60;;;;;;4965176;28;20054;-75
2022/09/21 09:14:57;;;;;;;8.10;3.10;;;22.40;93.50;;;;;;4965676;28;20031;-72
2022/09/21 09:17:43;;;;;;;138.35;58.53;;;23.40;88.00;;;;;;4964946;28;20035;-73
2022/09/21 09:20:09;;;;;;;6.78;1.80;;;24.20;79.00;;;;;;4959457;28;20036;-75
2022/09/21 09:23:01;;;;;;;6.22;1.52;;;24.60;75.00;;;;;;4963079;28;20045;-74
2022/09/21 09:25:38;;;;;;;6.55;1.77;;;25.10;72.70;;;;;;4963871;28;20417;-73
2022/09/21 09:28:29;;;;;;;5.25;1.92;;;25.80;70.10;;;;;;4978020;28;20483;-74
2022/09/21 09:31:18;;;;;;;3.10;2.03;;;26.10;69.00;;;;;;4971096;28;20078;-74
2022/09/21 09:33:49;;;;;;;3.80;1.70;;;26.80;65.70;;;;;;4963252;28;20373;-74
2022/09/21 09:36:16;;;;;;;5.05;1.85;;;26.90;62.30;;;;;;4963059;28;20027;-74
2022/09/21 09:38:49;;;;;;;4.82;2.35;;;27.30;59.60;;;;;;4963110;28;20350;-74
2022/09/21 09:41:21;;;;;;;2.17;2.08;;;26.90;61.50;;;;;;4962845;28;20105;-74
2022/09/21 09:43:47;;;;;;;8.35;2.30;;;26.70;60.40;;;;;;4961749;28;20030;-73
2022/09/21 09:46:58;;;;;;;5.88;2.10;;;26.50;60.70;;;;;;4962790;28;20491;-74
2022/09/21 09:49:59;;;;;;;7.25;2.13;;;25.80;61.70;;;;;;4954537;28;20118;-73
2022/09/21 09:52:25;;;;;;;3.58;1.15;;;25.80;59.90;;;;;;4907350;29;20036;-74
2022/09/21 09:54:50;;;;;;;1.55;1.35;;;26.10;58.10;;;;;;4947606;28;20368;-74
2022/09/21 09:57:26;;;;;;;4.68;1.70;;;25.90;56.30;;;;;;4963609;28;20031;-73
2022/09/21 09:59:57;;;;;;;8.27;2.05;;;25.70;57.20;;;;;;4967121;28;20050;-73
2022/09/21 10:02:25;;;;;;;4.93;1.80;;;25.30;57.40;;;;;;4968283;28;20041;-74
2022/09/21 10:05:06;;;;;;;7.18;1.60;;;25.10;58.20;;;;;;4969428;28;20042;-73
2022/09/21 10:07:42;;;;;;;3.50;1.90;;;24.70;60.20;;;;;;4979259;28;20031;-75
2022/09/21 10:10:32;;;;;;;7.32;1.52;;;24.50;57.00;;;;;;4967778;28;20015;-75
2022/09/21 10:13:30;;;;;;;2.90;1.33;;;24.50;58.50;;;;;;4980969;28;20034;-73
2022/09/21 10:16:03;;;;;;;2.45;1.55;;;24.60;58.40;;;;;;4961880;28;20050;-74
2022/09/21 10:18:39;;;;;;;3.38;1.40;;;24.60;57.40;;;;;;4959935;28;20057;-75
2022/09/21 10:21:31;;;;;;;4.53;1.60;;;24.50;57.20;;;;;;4966198;28;20089;-75
2022/09/21 10:24:01;;;;;;;4.68;1.80;;;24.40;57.90;;;;;;4964304;28;20035;-75
2022/09/21 10:26:46;;;;;;;3.20;1.40;;;23.90;57.00;;;;;;4959917;28;20039;-73
2022/09/21 10:29:20;;;;;;;8.27;1.60;;;23.20;56.90;;;;;;4962225;28;20468;-75
2022/09/21 10:31:58;;;;;;;5.25;1.40;;;23.30;59.80;;;;;;4960952;28;20105;-74
2022/09/21 10:34:30;;;;;;;7.80;1.70;;;23.20;58.10;;;;;;4963921;28;20023;-74
2022/09/21 10:36:57;;;;;;;;;;;23.40;59.90;;;;;;4963992;28;20054;-74
2022/09/21 10:39:28;;;;;;;3.00;1.40;;;24.00;58.10;;;;;;4962301;28;19913;-73
2022/09/21 10:42:10;;;;;;;4.25;1.33;;;24.50;56.10;;;;;;4970108;28;20137;-76
2022/09/21 10:44:39;;;;;;;11.27;5.57;;;24.90;55.20;;;;;;4961582;28;20085;-72
2022/09/21 10:47:21;;;;;;;5.35;2.30;;;25.20;56.80;;;;;;4960088;28;20648;-71
2022/09/21 10:49:55;;;;;;;5.78;1.40;;;25.10;55.40;;;;;;4961598;28;20089;-76
2022/09/21 10:52:24;;;;;;;4.72;1.40;;;25.00;54.70;;;;;;4966817;28;20041;-74
2022/09/21 10:54:53;;;;;;;5.05;1.42;;;25.30;51.90;;;;;;4965874;28;20031;-74
2022/09/21 10:57:22;;;;;;;4.80;1.35;;;25.80;55.20;;;;;;4963958;28;20460;-75
2022/09/21 10:59:48;;;;;;;3.78;1.05;;;26.10;51.80;;;;;;4960728;28;20050;-75
2022/09/21 11:02:30;;;;;;;1.58;1.20;;;25.90;52.10;;;;;;4960404;28;20085;-73
2022/09/21 11:05:25;;;;;;;7.25;1.48;;;25.80;52.10;;;;;;4962674;28;20034;-73
2022/09/21 11:08:35;;;;;;;2.10;1.10;;;25.40;54.10;;;;;;4956053;28;20047;-73
2022/09/21 11:11:24;;;;;;;6.55;1.35;;;25.50;52.00;;;;;;4956291;28;20038;-73
2022/09/21 11:13:59;;;;;;;6.72;1.30;;;25.20;53.60;;;;;;4958832;28;20022;-74
2022/09/21 11:16:25;;;;;;;1.55;1.17;;;25.20;53.40;;;;;;4961638;28;20093;-72
2022/09/21 11:19:20;;;;;;;1.52;1.38;;;25.60;53.60;;;;;;4963056;28;20066;-74
2022/09/21 11:21:50;;;;;;;4.45;1.30;;;25.60;50.00;;;;;;4963198;28;20726;-74
2022/09/21 11:24:47;;;;;;;3.05;2.05;;;25.10;51.40;;;;;;4964030;28;20709;-74
2022/09/21 11:27:19;;;;;;;3.08;1.10;;;25.10;51.10;;;;;;4960388;28;20019;-73
2022/09/21 11:30:07;;;;;;;1.83;1.40;;;25.10;50.80;;;;;;4963933;28;20129;-74
2022/09/21 11:32:54;;;;;;;6.03;1.10;;;25.20;53.50;;;;;;4956214;28;20043;-74
2022/09/21 11:36:06;;;;;;;2.58;1.33;;;25.40;51.40;;;;;;4967053;28;20113;-73
2022/09/21 11:39:08;;;;;;;38.75;17.95;;;25.30;51.30;;;;;;4963950;28;20492;-71
2022/09/21 11:41:43;;;;;;;2.03;1.50;;;25.30;50.70;;;;;;4965631;28;20022;-74
2022/09/21 11:44:17;;;;;;;3.30;1.50;;;24.60;53.00;;;;;;4958334;28;20272;-74
2022/09/21 11:46:46;;;;;;;1.65;1.42;;;24.10;51.80;;;;;;4955903;28;20031;-74
2022/09/21 11:49:26;;;;;;;3.67;1.25;;;24.30;54.20;;;;;;4959223;28;20522;-74
2022/09/21 11:52:14;;;;;;;3.35;1.30;;;24.90;51.50;;;;;;4960313;28;20041;-78
2022/09/21 11:54:45;;;;;;;2.13;1.02;;;25.40;50.60;;;;;;4964715;28;20077;-78
2022/09/21 11:57:27;;;;;;;2.35;1.05;;;25.40;50.20;;;;;;4964748;28;20758;-76
2022/09/21 11:59:59;;;;;;;6.13;1.10;;;25.70;51.40;;;;;;4967494;28;20062;-78
2022/09/21 12:02:43;;;;;;;1.40;1.10;;;26.20;50.40;;;;;;4966281;28;20480;-79
2022/09/21 12:05:26;;;;;;;2.28;1.40;;;26.20;47.90;;;;;;4964892;28;20038;-74
2022/09/21 12:08:32;;;;;;;4.18;1.48;;;26.20;48.20;;;;;;4968347;28;20038;-73
2022/09/21 12:11:47;;;;;;;2.45;1.55;;;26.20;49.30;;;;;;4933015;28;20083;-74
2022/09/21 12:14:38;;;;;;;1.85;1.40;;;26.70;48.50;;;;;;4927484;29;20127;-74
2022/09/21 12:17:28;;;;;;;3.65;1.35;;;26.50;49.70;;;;;;4932082;28;20035;-74
2022/09/21 12:20:18;;;;;;;3.13;1.45;;;26.90;48.00;;;;;;4967300;28;20037;-74
2022/09/21 12:22:47;;;;;;;1.75;1.35;;;26.90;47.90;;;;;;4969128;28;20043;-74
2022/09/21 12:25:18;;;;;;;66.40;29.17;;;26.90;46.90;;;;;;4967800;28;20031;-73
2022/09/21 12:28:11;;;;;;;2.03;1.40;;;26.50;46.90;;;;;;4970941;28;20113;-74
2022/09/21 12:30:40;;;;;;;2.88;1.33;;;25.70;47.60;;;;;;4968898;28;20019;-73
2022/09/21 12:33:33;;;;;;;3.75;1.40;;;24.50;48.60;;;;;;4968783;28;20035;-74
2022/09/21 12:36:09;;;;;;;5.00;1.20;;;24.00;51.20;;;;;;4967456;28;20101;-74
2022/09/21 12:38:43;;;;;;;7.32;1.40;;;23.80;52.50;;;;;;4969263;28;20456;-74
2022/09/21 12:41:23;;;;;;;3.17;1.27;;;23.10;51.80;;;;;;4961881;28;20404;-73
2022/09/21 12:43:55;;;;;;;3.03;1.65;;;22.80;53.40;;;;;;4962592;28;20429;-73
2022/09/21 12:46:28;;;;;;;1.92;1.58;;;22.50;53.80;;;;;;4964786;28;20043;-74
2022/09/21 12:48:54;;;;;;;2.55;1.48;;;22.20;54.70;;;;;;4968908;28;20027;-74
2022/09/21 12:51:29;;;;;;;5.15;1.50;;;22.00;54.90;;;;;;4968118;28;20023;-74
2022/09/21 12:54:00;;;;;;;4.00;1.48;;;22.90;55.10;;;;;;4963222;28;20015;-74
2022/09/21 12:56:44;;;;;;;3.70;1.50;;;23.90;52.00;;;;;;4967501;28;20358;-73
2022/09/21 12:59:15;;;;;;;7.20;1.50;;;24.20;51.20;;;;;;4961792;28;20035;-71
2022/09/21 13:01:58;;;;;;;6.03;1.65;;;24.70;49.10;;;;;;4964294;28;20440;-72
2022/09/21 13:04:46;;;;;;;6.47;1.83;;;24.50;49.50;;;;;;4966490;28;20050;-72
2022/09/21 13:07:12;;;;;;;3.42;1.83;;;24.10;50.00;;;;;;4963070;28;20629;-74
2022/09/21 13:09:41;;;;;;;1.83;1.17;;;23.50;51.90;;;;;;4976645;28;20069;-74
2022/09/21 13:12:14;;;;;;;1.60;1.23;;;23.30;52.50;;;;;;4964383;28;20739;-73
2022/09/21 13:14:47;;;;;;;3.47;1.40;;;23.60;53.60;;;;;;4963623;28;20364;-73
2022/09/21 13:17:34;;;;;;;4.15;2.13;;;24.10;51.90;;;;;;4965284;28;20035;-73
2022/09/21 13:20:05;;;;;;;3.40;1.98;;;24.10;50.70;;;;;;4959962;28;20023;-73
2022/09/21 13:22:36;;;;;;;2.65;1.67;;;24.70;50.10;;;;;;4967136;28;20050;-74